Terminal Aerodrome Forecast
Issued by NWS

Home | Current Version | Previous Version | Graphics & Text | Print | Product List | Glossary Off
Versions: 1 2 3 4 5 6 7 8 9 10 11 12 13 14 15

000
FTUS43 KDDC 261009 AAA
TAFHYS
TAF AMD
KHYS 261009Z 2610/2706 14009KT P6SM BKN015
     FM261100 13009KT P6SM SCT250
     FM262200 18016KT P6SM VCSH SCT250=

USA.gov is the U.S. government's official web portal to all federal, state and local government web resources and services.